createdAt,value
2019-05-22T00:02:37.819Z,30.88
2019-05-22T00:05:13.988Z,31.42
2019-05-22T00:07:45.507Z,31.80
2019-05-22T00:10:22.888Z,30.65
2019-05-22T00:12:53.826Z,32.88
2019-05-22T00:15:24.296Z,33.35
2019-05-22T00:17:54.034Z,32.80
2019-05-22T00:20:26.758Z,34.40
2019-05-22T00:25:28.447Z,29.80
2019-05-22T00:27:59.424Z,31.40
2019-05-22T00:30:32.804Z,32.70
2019-05-22T00:33:02.557Z,33.95
2019-05-22T00:35:33.146Z,30.83
2019-05-22T00:38:06.718Z,32.10
2019-05-22T00:40:42.137Z,31.00
2019-05-22T00:43:14.184Z,31.17
2019-05-22T00:45:48.882Z,32.83
2019-05-22T00:48:24.898Z,34.80
2019-05-22T00:51:09.997Z,33.20
2019-05-22T00:53:58.296Z,32.28
2019-05-22T00:56:35.995Z,34.13
2019-05-22T00:59:11.484Z,34.27
2019-05-22T01:01:47.300Z,32.55
2019-05-22T01:04:22.116Z,32.73
2019-05-22T01:06:54.299Z,35.08
2019-05-22T01:09:26.698Z,36.42
2019-05-22T01:11:55.753Z,34.35
2019-05-22T01:14:41.918Z,35.38
2019-05-22T01:16:59.476Z,37.28
2019-05-22T01:19:30.111Z,34.70
2019-05-22T01:22:01.942Z,34.92
2019-05-22T01:24:32.618Z,36.48
2019-05-22T01:27:01.907Z,36.35
2019-05-22T01:29:32.531Z,37.60
2019-05-22T01:32:25.944Z,35.92
2019-05-22T01:34:56.429Z,36.55
2019-05-22T01:37:27.396Z,36.68
2019-05-22T01:40:04.311Z,36.03
2019-05-22T01:42:41.294Z,36.28
2019-05-22T01:45:13.619Z,35.90
2019-05-22T01:50:46.981Z,35.00
2019-05-22T01:53:23.493Z,34.92
2019-05-22T01:55:57.893Z,35.98
2019-05-22T01:58:30.511Z,35.13
2019-05-22T02:01:02.359Z,37.42
2019-05-22T02:03:33.611Z,36.98
2019-05-22T02:06:06.408Z,37.00
2019-05-22T02:08:43.582Z,39.00
2019-05-22T02:14:07.157Z,38.53
2019-05-22T02:16:37.605Z,36.48
2019-05-22T02:19:08.070Z,35.90
2019-05-22T02:21:37.600Z,34.23
2019-05-22T02:24:09.288Z,35.05
2019-05-22T02:26:41.558Z,34.30
2019-05-22T02:29:12.665Z,34.58
2019-05-22T02:31:43.551Z,34.43
2019-05-22T02:34:14.509Z,35.50
2019-05-22T02:36:45.257Z,35.25
2019-05-22T02:39:23.465Z,35.78
2019-05-22T02:42:04.628Z,36.10
2019-05-22T02:44:34.517Z,35.85
2019-05-22T02:47:18.328Z,36.17
2019-05-22T02:49:36.767Z,35.60
2019-05-22T02:54:39.378Z,36.15
2019-05-22T02:57:11.117Z,36.70
2019-05-22T02:59:42.597Z,37.17
2019-05-22T03:05:02.809Z,37.42
2019-05-22T03:10:22.017Z,37.60
2019-05-22T03:12:53.904Z,37.90
2019-05-22T03:15:26.637Z,37.00
2019-05-22T03:20:29.311Z,36.23
2019-05-22T03:23:38.481Z,35.38
2019-05-22T03:26:12.697Z,35.25
2019-05-22T03:28:43.403Z,34.83
2019-05-22T03:31:15.242Z,37.33
2019-05-22T03:33:44.975Z,36.45
2019-05-22T03:36:18.331Z,35.43
2019-05-22T03:38:48.666Z,36.73
2019-05-22T03:41:18.853Z,37.67
2019-05-22T03:43:50.637Z,36.75
2019-05-22T03:46:41.531Z,37.30
2019-05-22T03:49:30.156Z,36.28
2019-05-22T03:51:50.063Z,36.33
2019-05-22T03:54:19.637Z,34.13
2019-05-22T03:59:18.129Z,35.00
2019-05-22T04:01:47.108Z,34.48
2019-05-22T04:04:36.654Z,34.53
2019-05-22T04:07:11.118Z,33.23
2019-05-22T04:09:43.508Z,33.55
2019-05-22T04:12:14.801Z,34.58
2019-05-22T04:14:45.978Z,31.85
2019-05-22T04:17:15.596Z,33.88
2019-05-22T04:22:16.895Z,34.35
2019-05-22T04:24:48.439Z,34.30
2019-05-22T04:27:18.060Z,34.10
2019-05-22T04:29:50.591Z,35.43
2019-05-22T04:32:32.451Z,36.63
2019-05-22T04:35:04.663Z,35.05
2019-05-22T04:37:35.646Z,34.00
2019-05-22T04:40:54.901Z,34.35
2019-05-22T04:43:30.452Z,33.13
2019-05-22T04:46:05.636Z,34.20
2019-05-22T04:51:25.602Z,34.80
2019-05-22T04:53:55.892Z,35.28
2019-05-22T04:56:27.579Z,37.85
2019-05-22T04:58:59.742Z,34.08
2019-05-22T05:03:58.283Z,33.33
2019-05-22T05:06:29.387Z,32.30
2019-05-22T05:08:59.854Z,35.03
2019-05-22T05:11:29.589Z,31.65
2019-05-22T05:16:26.899Z,33.85
2019-05-22T05:18:56.488Z,32.63
2019-05-22T05:21:25.842Z,32.70
2019-05-22T05:26:26.334Z,31.50
2019-05-22T05:28:56.574Z,28.17
2019-05-22T05:34:21.001Z,30.25
2019-05-22T05:36:51.598Z,28.90
2019-05-22T05:40:26.941Z,28.70
2019-05-22T05:42:56.914Z,27.85
2019-05-22T05:45:27.763Z,27.60
2019-05-22T05:50:38.907Z,27.22
2019-05-22T05:52:59.562Z,28.55
2019-05-22T05:55:49.117Z,29.40
2019-05-22T05:58:30.427Z,27.45
2019-05-22T06:01:27.712Z,28.25
2019-05-22T06:03:59.839Z,26.00
2019-05-22T06:07:18.918Z,26.50
2019-05-22T06:10:38.940Z,25.23
2019-05-22T06:13:08.829Z,25.65
2019-05-22T06:17:04.423Z,24.80
2019-05-22T06:19:40.603Z,25.37
2019-05-22T06:22:10.946Z,24.77
2019-05-22T06:25:03.636Z,25.17
2019-05-22T06:27:54.836Z,25.62
2019-05-22T06:30:47.136Z,24.47
2019-05-22T06:33:44.803Z,24.60
2019-05-22T06:36:20.576Z,23.65
2019-05-22T06:39:14.590Z,24.55
2019-05-22T06:41:45.967Z,23.60
2019-05-22T06:44:42.993Z,23.75
2019-05-22T06:53:08.898Z,23.32
2019-05-22T06:55:26.619Z,22.67
2019-05-22T06:57:55.695Z,22.37
2019-05-22T07:00:26.597Z,22.07
2019-05-22T07:02:55.951Z,21.50
2019-05-22T07:05:25.324Z,22.27
2019-05-22T07:07:56.118Z,22.55
2019-05-22T07:10:26.648Z,21.57
2019-05-22T07:12:58.441Z,20.40
2019-05-22T07:15:41.383Z,19.85
2019-05-22T07:18:13.013Z,22.00
2019-05-22T07:23:02.896Z,20.43
2019-05-22T07:25:34.794Z,20.92
2019-05-22T07:28:06.439Z,21.87
2019-05-22T07:30:36.129Z,20.23
2019-05-22T07:33:07.681Z,20.25
2019-05-22T07:35:56.193Z,19.70
2019-05-22T07:38:08.977Z,20.62
2019-05-22T07:40:38.303Z,20.97
2019-05-22T07:43:07.709Z,19.30
2019-05-22T07:45:39.773Z,19.60
2019-05-22T07:48:13.247Z,18.95
2019-05-22T07:53:16.533Z,18.55
2019-05-22T07:55:48.724Z,19.85
2019-05-22T08:00:58.586Z,17.25
2019-05-22T08:03:30.296Z,17.07
2019-05-22T08:06:00.409Z,17.10
2019-05-22T08:08:34.520Z,17.05
2019-05-22T08:11:04.907Z,16.07
2019-05-22T08:13:34.915Z,17.37
2019-05-22T08:16:05.405Z,17.37
2019-05-22T08:18:36.750Z,15.95
2019-05-22T08:23:34.577Z,16.10
2019-05-22T08:31:04.855Z,15.25
2019-05-22T08:33:35.962Z,15.65
2019-05-22T08:36:06.287Z,15.00
2019-05-22T08:38:36.688Z,15.38
2019-05-22T08:44:03.168Z,13.75
2019-05-22T08:46:12.440Z,12.82
2019-05-22T08:48:48.164Z,13.38
2019-05-22T08:51:14.167Z,12.40
2019-05-22T08:53:48.027Z,12.40
2019-05-22T08:56:15.966Z,12.65
2019-05-22T08:58:45.746Z,12.10
2019-05-22T09:03:44.718Z,11.65
2019-05-22T09:08:43.792Z,10.88
2019-05-22T09:11:13.304Z,10.63
2019-05-22T09:13:42.745Z,10.68
2019-05-22T09:18:42.127Z,10.75
2019-05-22T09:21:12.837Z,10.60
2019-05-22T09:23:43.823Z,10.00
2019-05-22T09:26:13.729Z,9.63
2019-05-22T09:31:12.070Z,9.33
2019-05-22T09:33:41.455Z,8.53
2019-05-22T09:36:12.627Z,8.78
2019-05-22T09:38:43.595Z,9.25
2019-05-22T09:41:12.997Z,9.10
2019-05-22T09:43:42.928Z,9.35
2019-05-22T09:46:14.502Z,9.65
2019-05-22T09:51:13.056Z,9.28
2019-05-22T09:53:43.353Z,10.00
2019-05-22T09:56:14.406Z,10.28
2019-05-22T09:58:43.657Z,9.38
2019-05-22T10:03:43.419Z,10.15
2019-05-22T10:06:13.527Z,9.33
2019-05-22T10:08:43.417Z,9.75
2019-05-22T10:11:12.942Z,10.08
2019-05-22T10:13:42.067Z,10.65
2019-05-22T10:16:11.952Z,10.72
2019-05-22T10:18:42.290Z,9.50
2019-05-22T10:21:12.586Z,8.95
2019-05-22T10:23:43.549Z,8.65
2019-05-22T10:26:12.910Z,9.10
2019-05-22T10:31:11.849Z,8.53
2019-05-22T10:33:42.477Z,8.48
2019-05-22T10:36:12.049Z,8.60
2019-05-22T10:38:42.433Z,7.53
2019-05-22T10:43:43.175Z,7.78
2019-05-22T10:46:13.659Z,7.22
2019-05-22T10:51:13.541Z,7.30
2019-05-22T10:53:43.948Z,7.42
2019-05-22T10:56:13.461Z,7.53
2019-05-22T10:58:43.397Z,8.03
2019-05-22T11:01:13.565Z,7.95
2019-05-22T11:06:12.607Z,7.20
2019-05-22T11:11:12.421Z,7.17
2019-05-22T11:14:00.170Z,6.75
2019-05-22T11:16:15.230Z,6.60
2019-05-22T11:18:45.444Z,6.83
2019-05-22T11:23:51.805Z,6.60
2019-05-22T11:26:15.571Z,6.15
2019-05-22T11:35:31.384Z,7.72
2019-05-22T11:38:00.831Z,6.90
2019-05-22T11:40:30.428Z,7.55
2019-05-22T11:42:59.739Z,8.40
2019-05-22T11:45:29.225Z,7.50
2019-05-22T11:47:58.599Z,8.23
2019-05-22T11:50:29.465Z,7.78
2019-05-22T11:54:37.540Z,7.85
2019-05-22T11:57:06.576Z,7.28
2019-05-22T11:59:36.494Z,7.75
2019-05-22T12:02:07.585Z,7.40
2019-05-22T12:04:47.930Z,6.67
2019-05-22T12:07:11.183Z,7.10
2019-05-22T12:09:41.480Z,6.03
2019-05-22T12:12:11.544Z,7.10
2019-05-22T12:14:41.414Z,6.80
2019-05-22T12:17:12.137Z,7.28
2019-05-22T12:19:42.302Z,6.62
2019-05-22T12:22:11.967Z,5.70
2019-05-22T12:24:42.743Z,5.33
2019-05-22T12:27:12.410Z,5.10
2019-05-22T12:29:43.950Z,4.92
2019-05-22T12:32:14.557Z,5.08
2019-05-22T12:34:44.091Z,5.05
2019-05-22T12:37:14.482Z,6.60
2019-05-22T12:39:45.749Z,6.17
2019-05-22T12:42:19.116Z,6.30
2019-05-22T12:44:49.738Z,6.37
2019-05-22T12:47:18.938Z,6.90
2019-05-22T12:49:49.218Z,7.78
2019-05-22T12:52:19.573Z,8.25
2019-05-22T12:54:52.880Z,7.85
2019-05-22T12:57:21.751Z,7.20
2019-05-22T13:02:23.464Z,6.33
2019-05-22T13:04:54.119Z,6.65
2019-05-22T13:07:23.788Z,6.15
2019-05-22T13:12:22.100Z,6.33
2019-05-22T13:15:07.925Z,6.40
2019-05-22T13:17:25.619Z,5.78
2019-05-22T13:19:56.290Z,6.50
2019-05-22T13:22:26.928Z,6.90
2019-05-22T13:24:57.447Z,7.40
2019-05-22T13:27:26.839Z,6.70
2019-05-22T13:29:56.935Z,7.37
2019-05-22T13:32:27.615Z,7.33
2019-05-22T13:34:56.463Z,7.28
2019-05-22T13:37:25.783Z,6.40
2019-05-22T13:39:55.769Z,7.70
2019-05-22T13:42:26.579Z,7.23
2019-05-22T13:44:56.689Z,7.30
2019-05-22T13:49:55.140Z,7.03
2019-05-22T13:52:50.630Z,6.67
2019-05-22T13:55:20.828Z,6.87
2019-05-22T13:57:50.837Z,6.70
2019-05-22T14:00:22.656Z,6.50
2019-05-22T14:05:24.801Z,5.15
2019-05-22T14:07:54.002Z,5.60
2019-05-22T14:10:27.483Z,4.92
2019-05-22T14:12:58.035Z,5.47
2019-05-22T14:15:47.366Z,4.70
2019-05-22T14:17:59.744Z,5.12
2019-05-22T14:20:29.490Z,4.90
2019-05-22T14:22:58.764Z,4.60
2019-05-22T14:25:29.682Z,4.10
2019-05-22T14:27:59.885Z,4.08
2019-05-22T14:30:30.427Z,3.90
2019-05-22T14:33:04.121Z,4.30
2019-05-22T14:35:47.609Z,4.75
2019-05-22T14:38:06.640Z,5.10
2019-05-22T14:40:37.862Z,4.05
2019-05-22T14:43:07.773Z,4.28
2019-05-22T14:45:37.565Z,4.10
2019-05-22T14:48:07.867Z,3.58
2019-05-22T14:50:37.927Z,4.22
2019-05-22T14:53:07.308Z,3.65
2019-05-22T14:55:38.817Z,3.77
2019-05-22T14:58:09.481Z,3.90
2019-05-22T15:00:39.706Z,4.10
2019-05-22T15:05:38.555Z,4.87
2019-05-22T15:08:08.596Z,4.90
2019-05-22T15:13:07.975Z,7.00
2019-05-22T15:15:40.523Z,7.42
2019-05-22T15:18:08.915Z,7.58
2019-05-22T15:20:46.539Z,6.75
2019-05-22T15:23:15.740Z,6.97
2019-05-22T15:25:44.999Z,7.00
2019-05-22T15:28:15.597Z,6.67
2019-05-22T15:30:46.697Z,5.60
2019-05-22T15:33:16.514Z,5.90
2019-05-22T15:35:46.423Z,5.58
2019-05-22T15:38:16.505Z,4.95
2019-05-22T15:40:46.402Z,6.47
2019-05-22T15:43:16.548Z,5.75
2019-05-22T15:48:27.455Z,5.40
2019-05-22T15:51:05.520Z,4.70
2019-05-22T15:53:38.565Z,4.22
2019-05-22T15:56:10.994Z,4.83
2019-05-22T15:58:51.732Z,4.70
2019-05-22T16:01:25.639Z,3.92
2019-05-22T16:03:57.595Z,3.58
2019-05-22T16:06:28.410Z,3.90
2019-05-22T16:08:58.886Z,6.47
2019-05-22T16:11:30.816Z,6.33
2019-05-22T16:14:01.351Z,6.70
2019-05-22T16:16:32.607Z,6.20
2019-05-22T16:19:06.655Z,6.67
2019-05-22T16:21:43.623Z,6.90
2019-05-22T16:24:13.519Z,5.92
2019-05-22T16:26:42.982Z,5.75
2019-05-22T16:29:14.595Z,5.62
2019-05-22T16:31:46.496Z,4.45
2019-05-22T16:34:17.647Z,4.67
2019-05-22T16:39:17.694Z,4.58
2019-05-22T16:44:16.662Z,4.17
2019-05-22T16:46:47.598Z,4.85
2019-05-22T16:51:48.300Z,5.30
2019-05-22T16:54:20.948Z,4.15
2019-05-22T16:56:52.169Z,4.12
2019-05-22T17:00:01.774Z,4.33
2019-05-22T17:02:34.077Z,4.40
2019-05-22T17:05:07.923Z,4.00
2019-05-22T17:07:39.478Z,4.28
2019-05-22T17:10:11.013Z,3.95
2019-05-22T17:12:41.579Z,3.72
2019-05-22T17:15:16.942Z,3.52
2019-05-22T17:17:46.564Z,3.90
2019-05-22T17:20:19.834Z,3.65
2019-05-22T17:22:49.140Z,4.37
2019-05-22T17:25:20.549Z,3.60
2019-05-22T17:27:50.581Z,3.90
2019-05-22T17:37:54.630Z,3.77
2019-05-22T17:40:24.901Z,3.80
2019-05-22T17:42:55.507Z,4.00
2019-05-22T17:45:28.424Z,3.90
2019-05-22T17:48:01.341Z,3.67
2019-05-22T17:50:30.642Z,4.08
2019-05-22T17:53:00.846Z,3.65
2019-05-22T17:55:30.654Z,4.05
2019-05-22T17:58:00.246Z,3.65
2019-05-22T18:00:37.129Z,3.58
2019-05-22T18:03:19.462Z,3.72
2019-05-22T18:05:49.927Z,3.75
2019-05-22T18:08:20.111Z,4.30
2019-05-22T18:10:50.610Z,4.25
2019-05-22T18:15:49.727Z,3.70
2019-05-22T18:23:17.538Z,3.83
2019-05-22T18:25:46.435Z,4.00
2019-05-22T18:28:16.556Z,4.45
2019-05-22T18:30:46.567Z,4.80
2019-05-22T18:33:16.492Z,4.35
2019-05-22T18:35:47.305Z,4.47
2019-05-22T18:38:17.301Z,3.75
2019-05-22T18:40:47.375Z,4.30
2019-05-22T18:45:48.505Z,4.80
2019-05-22T18:48:17.738Z,4.08
2019-05-22T18:50:47.868Z,4.60
2019-05-22T18:53:17.473Z,4.37
2019-05-22T18:55:47.754Z,4.60
2019-05-22T18:58:17.588Z,4.95
2019-05-22T19:03:16.595Z,4.92
2019-05-22T19:08:16.508Z,4.92
2019-05-22T19:10:46.017Z,5.33
2019-05-22T19:13:15.139Z,5.47
2019-05-22T19:19:38.415Z,5.40
2019-05-22T19:22:07.690Z,5.85
2019-05-22T19:24:37.197Z,6.45
2019-05-22T19:27:06.774Z,6.00
2019-05-22T19:29:36.168Z,6.42
2019-05-22T19:32:05.441Z,6.97
2019-05-22T19:34:35.533Z,6.40
2019-05-22T19:37:04.542Z,6.25
2019-05-22T19:39:34.253Z,6.62
2019-05-22T19:42:05.698Z,6.78
2019-05-22T19:44:35.700Z,6.70
2019-05-22T19:47:06.474Z,7.00
2019-05-22T19:49:35.943Z,7.12
2019-05-22T19:52:10.708Z,6.78
2019-05-22T19:54:40.929Z,8.00
2019-05-22T19:57:11.920Z,7.10
2019-05-22T19:59:41.148Z,6.47
2019-05-22T20:02:14.302Z,7.00
2019-05-22T20:07:13.643Z,7.15
2019-05-22T20:09:45.120Z,6.50
2019-05-22T20:12:14.928Z,7.28
2019-05-22T20:14:44.324Z,7.22
2019-05-22T20:17:15.117Z,6.60
2019-05-22T20:19:45.528Z,7.25
2019-05-22T20:22:15.307Z,7.72
2019-05-22T20:24:45.308Z,8.83
2019-05-22T20:27:15.186Z,8.88
2019-05-22T20:29:46.495Z,8.90
2019-05-22T20:32:17.625Z,9.00
2019-05-22T20:34:48.838Z,9.20
2019-05-22T20:37:18.567Z,9.63
2019-05-22T20:42:18.319Z,10.50
2019-05-22T20:44:48.473Z,10.55
2019-05-22T20:47:24.696Z,10.38
2019-05-22T20:49:54.567Z,9.58
2019-05-22T20:52:24.323Z,10.30
2019-05-22T20:54:54.089Z,10.78
2019-05-22T20:57:25.746Z,10.18
2019-05-22T20:59:55.116Z,10.45
2019-05-22T21:02:26.639Z,10.88
2019-05-22T21:04:56.450Z,10.80
2019-05-22T21:07:37.654Z,10.58
2019-05-22T21:10:08.321Z,10.50
2019-05-22T21:12:38.703Z,10.88
2019-05-22T21:17:39.202Z,11.53
2019-05-22T21:20:13.141Z,11.73
2019-05-22T21:22:42.973Z,11.65
2019-05-22T21:25:13.020Z,11.70
2019-05-22T21:27:42.822Z,11.33
2019-05-22T21:30:14.186Z,12.20
2019-05-22T21:32:47.311Z,12.03
2019-05-22T21:35:20.766Z,11.48
2019-05-22T21:37:50.038Z,11.48
2019-05-22T21:40:23.029Z,11.80
2019-05-22T21:42:54.934Z,12.75
2019-05-22T21:45:24.925Z,13.48
2019-05-22T21:47:54.724Z,12.40
2019-05-22T21:50:25.311Z,13.03
2019-05-22T21:52:54.821Z,12.98
2019-05-22T21:55:24.951Z,12.85
2019-05-22T21:57:56.083Z,12.50
2019-05-22T22:00:48.384Z,12.82
2019-05-22T22:03:22.584Z,13.38
2019-05-22T22:05:51.942Z,13.20
2019-05-22T22:08:22.136Z,13.20
2019-05-22T22:10:51.827Z,13.40
2019-05-22T22:13:27.074Z,13.15
2019-05-22T22:15:56.956Z,13.22
2019-05-22T22:18:27.181Z,13.75
2019-05-22T22:20:57.503Z,13.48
2019-05-22T22:23:28.917Z,13.72
2019-05-22T22:25:59.757Z,13.48
2019-05-22T22:28:30.461Z,13.93
2019-05-22T22:34:46.140Z,13.75
2019-05-22T22:37:18.549Z,14.28
2019-05-22T22:42:28.302Z,14.35
2019-05-22T22:44:59.508Z,13.90
2019-05-22T22:47:39.220Z,14.75
2019-05-22T22:50:09.131Z,14.15
2019-05-22T22:52:39.424Z,14.28
2019-05-22T22:55:13.591Z,14.28
2019-05-22T22:57:43.692Z,14.93
2019-05-22T23:05:18.596Z,15.38
2019-05-22T23:07:48.543Z,16.17
2019-05-22T23:10:20.939Z,15.95
2019-05-22T23:12:55.087Z,14.73
2019-05-22T23:15:25.908Z,15.05
2019-05-22T23:17:55.462Z,15.38
2019-05-22T23:20:22.400Z,15.90
2019-05-22T23:22:49.294Z,16.12
2019-05-22T23:25:20.605Z,16.30
2019-05-22T23:27:50.532Z,16.02
2019-05-22T23:30:20.937Z,16.05
2019-05-22T23:32:53.758Z,15.35
2019-05-22T23:35:25.030Z,15.75
2019-05-22T23:37:54.311Z,16.05
2019-05-22T23:40:31.064Z,16.37
2019-05-22T23:43:01.414Z,16.57
2019-05-22T23:45:30.434Z,16.35
2019-05-22T23:48:16.422Z,16.67
2019-05-22T23:53:17.773Z,16.27
2019-05-22T23:55:48.162Z,16.90
2019-05-22T23:58:19.564Z,16.50
